Time;durP1;ratioP1;P1;durP2;ratioP2;P2;SDS_P1;SDS_P2;PMS_P1;PMS_P2;Temp;Humidity;BMP_temperature;BMP_pressure;BME280_temperature;BME280_humidity;BME280_pressure;Samples;Min_cycle;Max_cycle;Signal;HPM_P1;HPM_P2
2021/07/11 00:01:59;;;;;;;19.00;17.20;;;;;;;18.14;73.89;100254.81;5068505;28;20571;-73
2021/07/11 00:04:26;;;;;;;17.60;15.90;;;;;;;18.25;73.35;100255.19;5082354;28;20524;-73
2021/07/11 00:06:52;;;;;;;18.87;17.13;;;;;;;18.26;73.03;100253.31;5069859;28;20487;-73
2021/07/11 00:09:19;;;;;;;18.40;16.47;;;;;;;18.22;73.05;100257.44;5061996;28;20528;-73
2021/07/11 00:11:45;;;;;;;18.77;16.97;;;;;;;18.08;73.37;100261.84;5063825;28;21154;-73
2021/07/11 00:14:12;;;;;;;19.10;17.17;;;;;;;18.02;73.24;100258.03;5062766;28;20518;-72
2021/07/11 00:16:39;;;;;;;19.53;17.63;;;;;;;18.07;73.04;100260.16;5073790;28;20560;-72
2021/07/11 00:19:07;;;;;;;20.30;18.30;;;;;;;18.07;73.24;100268.28;5082359;28;20886;-72
2021/07/11 00:21:33;;;;;;;20.00;17.80;;;;;;;18.08;73.14;100266.44;5080712;28;20492;-72
2021/07/11 00:24:00;;;;;;;18.80;17.20;;;;;;;18.10;73.53;100264.38;5079582;28;20477;-73
2021/07/11 00:26:26;;;;;;;20.43;18.30;;;;;;;18.10;73.34;100259.78;5067059;28;20564;-72
2021/07/11 00:28:53;;;;;;;21.53;19.43;;;;;;;18.12;73.25;100257.72;5066332;28;20893;-72
2021/07/11 00:31:20;;;;;;;20.30;18.33;;;;;;;18.17;73.16;100255.28;5065701;28;20501;-73
2021/07/11 00:33:46;;;;;;;22.93;19.70;;;;;;;18.16;72.86;100255.50;5064549;28;20522;-73
2021/07/11 00:36:14;;;;;;;19.73;17.93;;;;;;;18.25;73.04;100251.66;5066540;28;20485;-73
2021/07/11 00:38:41;;;;;;;19.47;17.67;;;;;;;18.15;73.25;100251.94;5076129;28;20535;-73
2021/07/11 00:41:08;;;;;;;20.40;18.40;;;;;;;18.06;73.51;100255.78;5081836;28;20543;-73
2021/07/11 00:43:34;;;;;;;19.63;17.73;;;;;;;18.09;73.52;100252.72;5074321;28;20608;-73
2021/07/11 00:46:01;;;;;;;21.07;19.03;;;;;;;18.23;73.18;100261.81;5059084;28;20507;-73
2021/07/11 00:48:28;;;;;;;20.80;17.77;;;;;;;18.37;72.90;100260.09;5065414;28;20985;-73
2021/07/11 00:50:56;;;;;;;19.80;17.70;;;;;;;18.37;72.86;100266.34;5074775;28;20477;-73
2021/07/11 00:53:24;;;;;;;19.17;17.27;;;;;;;18.36;73.16;100264.66;5058243;28;20549;-73
2021/07/11 00:55:52;;;;;;;21.50;18.67;;;;;;;18.48;72.18;100264.19;5058276;28;20536;-72
2021/07/11 00:58:18;;;;;;;19.47;17.70;;;;;;;18.56;72.10;100264.06;5042518;28;20460;-73
2021/07/11 01:00:49;;;;;;;18.87;17.03;;;;;;;18.41;72.81;100262.22;5077302;28;20497;-73
2021/07/11 01:03:22;;;;;;;20.57;18.53;;;;;;;18.29;73.19;100254.81;5061042;28;20437;-73
2021/07/11 01:05:48;;;;;;;20.50;18.43;;;;;;;18.26;73.01;100253.31;5040846;28;20489;-73
2021/07/11 01:08:16;;;;;;;18.77;16.93;;;;;;;18.37;72.91;100262.81;5042052;28;20493;-73
2021/07/11 01:10:47;;;;;;;18.10;16.40;;;;;;;18.37;73.23;100249.28;5079340;28;21103;-73
2021/07/11 01:13:16;;;;;;;19.87;17.67;;;;;;;18.45;73.00;100254.56;5078040;28;20462;-73
2021/07/11 01:15:47;;;;;;;20.07;18.17;;;;;;;18.44;73.31;100252.91;5065557;28;20483;-72
2021/07/11 01:18:15;;;;;;;18.83;17.13;;;;;;;18.52;73.00;100255.50;5061836;28;20468;-73
2021/07/11 01:20:45;;;;;;;19.57;17.67;;;;;;;18.58;72.68;100253.88;5072912;28;20587;-73
2021/07/11 01:23:15;;;;;;;19.40;17.60;;;;;;;18.62;72.58;100252.44;5071815;28;20468;-73
2021/07/11 01:25:45;;;;;;;19.33;17.30;;;;;;;18.74;72.38;100247.34;5059616;28;20481;-73
2021/07/11 01:28:14;;;;;;;18.60;16.60;;;;;;;18.57;72.95;100249.47;5068531;28;20488;-73
2021/07/11 01:30:41;;;;;;;19.33;17.37;;;;;;;18.35;73.62;100257.59;5079923;28;20472;-73
2021/07/11 01:33:08;;;;;;;18.90;17.10;;;;;;;18.23;74.46;100259.13;5078513;28;20483;-72
2021/07/11 01:35:36;;;;;;;20.37;18.27;;;;;;;18.07;75.20;100254.75;5081772;28;20543;-73
2021/07/11 01:38:04;;;;;;;19.20;17.40;;;;;;;18.04;75.07;100261.38;5069844;28;20432;-73
2021/07/11 01:40:31;;;;;;;21.07;18.87;;;;;;;18.18;74.07;100258.84;5063887;28;21002;-72
2021/07/11 01:42:59;;;;;;;19.80;17.90;;;;;;;18.33;73.71;100261.50;5061751;28;20476;-72
2021/07/11 01:45:26;;;;;;;21.47;18.70;;;;;;;18.32;73.55;100254.44;5061056;28;20528;-72
2021/07/11 01:47:54;;;;;;;20.23;18.23;;;;;;;18.36;73.44;100251.13;5082856;28;20631;-73
2021/07/11 01:50:21;;;;;;;19.57;17.53;;;;;;;18.41;73.44;100253.28;5070685;28;20451;-73
2021/07/11 01:52:48;;;;;;;20.20;18.30;;;;;;;18.47;73.35;100257.94;5065801;28;20966;-73
2021/07/11 01:55:15;;;;;;;19.23;17.50;;;;;;;18.57;72.95;100247.59;5065691;28;20457;-72
2021/07/11 01:57:42;;;;;;;20.40;18.30;;;;;;;18.58;72.68;100251.16;5065757;28;20475;-73
2021/07/11 02:00:14;;;;;;;21.50;19.53;;;;;;;18.54;72.62;100260.69;5065327;28;20500;-73
2021/07/11 02:02:42;;;;;;;19.87;17.87;;;;;;;18.31;73.76;100261.69;5084715;28;20512;-73
2021/07/11 02:05:11;;;;;;;20.20;18.30;;;;;;;18.06;74.01;100245.81;5069772;28;20445;-73
2021/07/11 02:07:37;;;;;;;20.90;18.90;;;;;;;18.18;73.96;100248.84;5065159;28;20512;-72
2021/07/11 02:10:06;;;;;;;20.43;18.33;;;;;;;18.31;73.59;100244.63;5065977;28;20501;-73
2021/07/11 02:12:33;;;;;;;20.30;18.40;;;;;;;18.32;73.83;100249.84;5065166;28;20489;-73
2021/07/11 02:15:02;;;;;;;21.13;19.10;;;;;;;18.40;73.41;100248.88;5045124;28;20464;-73
2021/07/11 02:17:30;;;;;;;20.33;18.40;;;;;;;18.27;73.34;100244.16;5060991;28;20544;-73
2021/07/11 02:20:00;;;;;;;22.10;19.73;;;;;;;18.24;73.74;100242.69;5065559;28;20449;-73
2021/07/11 02:22:26;;;;;;;20.40;18.27;;;;;;;18.39;73.02;100256.16;5083792;28;20476;-73
2021/07/11 02:24:54;;;;;;;21.77;19.77;;;;;;;18.43;73.15;100246.63;5084520;28;20504;-72
2021/07/11 02:27:21;;;;;;;22.00;19.80;;;;;;;18.42;72.80;100244.13;5071335;28;21014;-73
2021/07/11 02:29:52;;;;;;;21.93;19.63;;;;;;;18.43;72.97;100243.91;5065728;28;20520;-73
2021/07/11 02:32:19;;;;;;;19.27;17.47;;;;;;;18.68;72.08;100232.72;5077452;28;20704;-73
2021/07/11 02:34:47;;;;;;;20.97;18.97;;;;;;;18.64;71.82;100244.97;5082780;28;20454;-72
2021/07/11 02:37:17;;;;;;;19.67;17.87;;;;;;;18.67;72.35;100243.75;5064583;28;20512;-73
2021/07/11 02:39:45;;;;;;;20.73;18.63;;;;;;;18.56;72.38;100248.66;5071785;28;20491;-72
2021/07/11 02:42:14;;;;;;;19.33;17.43;;;;;;;18.55;72.58;100249.66;5073080;28;20479;-73
2021/07/11 02:44:45;;;;;;;18.07;16.37;;;;;;;18.66;72.61;100253.72;5064589;28;20457;-72
2021/07/11 02:47:15;;;;;;;19.23;17.43;;;;;;;18.69;72.81;100257.94;5068107;28;20556;-72
2021/07/11 02:49:44;;;;;;;20.33;18.37;;;;;;;18.74;72.60;100256.31;5074111;28;20479;-72
2021/07/11 02:52:12;;;;;;;21.00;18.47;;;;;;;18.76;72.15;100246.09;5084341;28;20555;-73
2021/07/11 02:54:41;;;;;;;19.10;17.27;;;;;;;18.84;71.92;100249.78;5084831;28;20458;-73
2021/07/11 02:57:09;;;;;;;21.00;18.87;;;;;;;18.79;71.77;100258.44;5073149;28;20549;-73
2021/07/11 02:59:36;;;;;;;19.87;17.83;;;;;;;18.77;72.06;100255.94;5065183;28;20953;-73
2021/07/11 03:02:04;;;;;;;21.20;19.40;;;;;;;18.50;72.86;100257.53;5071219;28;20481;-73
2021/07/11 03:04:32;;;;;;;19.87;17.87;;;;;;;18.53;72.60;100259.03;5068861;28;21008;-73
2021/07/11 03:07:00;;;;;;;20.73;18.60;;;;;;;18.62;72.27;100266.81;5082494;28;20480;-73
2021/07/11 03:09:28;;;;;;;20.83;18.83;;;;;;;18.62;72.32;100263.28;5065020;28;20512;-73
2021/07/11 03:11:55;;;;;;;20.27;18.27;;;;;;;18.55;72.71;100263.19;5073269;28;20544;-73
2021/07/11 03:14:22;;;;;;;19.00;17.20;;;;;;;18.53;73.05;100259.03;5064380;28;20881;-73
2021/07/11 03:16:51;;;;;;;22.10;18.57;;;;;;;18.44;73.07;100266.44;5080808;28;20748;-73
2021/07/11 03:19:18;;;;;;;21.33;19.13;;;;;;;18.51;73.32;100266.50;5084776;28;20433;-73
2021/07/11 03:21:45;;;;;;;21.30;19.23;;;;;;;18.32;73.95;100268.78;5064651;28;20564;-73
2021/07/11 03:24:12;;;;;;;22.63;20.20;;;;;;;18.47;73.67;100274.19;5075528;28;20520;-73
2021/07/11 03:26:42;;;;;;;23.00;20.73;;;;;;;18.55;73.36;100275.91;5074348;28;20480;-73
2021/07/11 03:29:17;;;;;;;22.50;20.40;;;;;;;18.48;73.04;100272.28;5083264;28;20587;-73
2021/07/11 03:31:44;;;;;;;23.93;21.53;;;;;;;18.38;73.51;100278.88;5075935;28;20487;-73
2021/07/11 03:34:11;;;;;;;25.07;22.53;;;;;;;18.49;73.23;100277.53;5080860;28;20480;-73
2021/07/11 03:36:38;;;;;;;23.93;21.43;;;;;;;18.54;73.22;100288.63;5075878;28;20838;-72
2021/07/11 03:39:06;;;;;;;22.80;20.60;;;;;;;18.67;72.95;100293.31;5067997;28;20441;-73
2021/07/11 03:41:36;;;;;;;26.70;24.07;;;;;;;18.60;73.36;100290.53;5063618;28;20560;-73
2021/07/11 03:44:05;;;;;;;24.40;22.00;;;;;;;18.95;72.64;100287.16;5077834;28;20512;-73
2021/07/11 03:46:35;;;;;;;24.43;22.10;;;;;;;19.30;71.19;100289.94;5077423;28;20488;-73
2021/07/11 03:49:04;;;;;;;29.50;21.67;;;;;;;19.60;70.02;100281.59;5063764;28;20501;-73
2021/07/11 03:51:33;;;;;;;22.40;20.10;;;;;;;19.69;69.33;100280.44;5078867;28;20560;-73
2021/07/11 03:54:01;;;;;;;26.50;21.50;;;;;;;19.63;69.56;100283.91;5078490;28;20525;-73
2021/07/11 03:56:28;;;;;;;22.43;20.40;;;;;;;19.49;69.81;100289.25;5078490;28;20553;-72
2021/07/11 03:58:56;;;;;;;25.20;22.10;;;;;;;19.67;70.02;100277.91;5073213;28;20980;-72
2021/07/11 04:01:26;;;;;;;24.17;21.67;;;;;;;19.66;68.85;100280.81;5082828;28;20468;-73
2021/07/11 04:03:54;;;;;;;21.00;18.90;;;;;;;19.51;69.86;100275.50;5074394;28;20453;-73
2021/07/11 04:06:21;;;;;;;22.03;19.73;;;;;;;19.58;69.62;100279.09;5081955;28;20474;-72
2021/07/11 04:08:49;;;;;;;22.27;20.07;;;;;;;19.60;69.51;100279.75;5082185;28;20512;-73
2021/07/11 04:11:16;;;;;;;21.03;18.93;;;;;;;19.56;69.87;100297.44;5079748;28;20604;-74
2021/07/11 04:13:42;;;;;;;26.27;20.27;;;;;;;19.40;70.16;100286.91;5064383;28;20505;-74
2021/07/11 04:16:10;;;;;;;22.73;20.63;;;;;;;19.31;70.80;100299.78;5073452;28;20495;-73
2021/07/11 04:18:39;;;;;;;21.53;19.47;;;;;;;19.34;70.99;100296.66;5083353;28;20476;-73
2021/07/11 04:21:07;;;;;;;22.70;20.30;;;;;;;19.40;70.45;100298.56;5064220;28;20487;-73
2021/07/11 04:23:34;;;;;;;22.83;19.73;;;;;;;19.57;70.26;100294.53;5081707;28;20981;-73
2021/07/11 04:26:02;;;;;;;22.23;19.87;;;;;;;19.65;69.82;100295.41;5071898;28;20561;-73
2021/07/11 04:28:30;;;;;;;22.80;20.33;;;;;;;19.52;70.69;100298.88;5066829;28;20511;-73
2021/07/11 04:30:59;;;;;;;22.90;20.80;;;;;;;19.33;71.75;100303.94;5066147;28;20564;-73
2021/07/11 04:33:25;;;;;;;24.57;21.97;;;;;;;19.21;71.74;100320.94;5066777;28;20475;-73
2021/07/11 04:35:53;;;;;;;24.23;21.67;;;;;;;19.41;71.02;100311.09;5080545;28;20472;-73
2021/07/11 04:38:20;;;;;;;20.83;18.63;;;;;;;19.58;70.99;100314.34;5069225;28;20520;-73
2021/07/11 04:40:47;;;;;;;20.83;18.93;;;;;;;19.85;70.07;100312.66;5062811;28;20469;-73
2021/07/11 04:43:15;;;;;;;23.07;20.73;;;;;;;19.66;69.75;100318.78;5073699;28;20461;-72
2021/07/11 04:45:42;;;;;;;23.30;21.10;;;;;;;19.88;69.73;100317.72;5064027;28;20983;-73
2021/07/11 04:48:09;;;;;;;23.37;21.07;;;;;;;20.11;69.09;100319.28;5082653;28;20540;-73
2021/07/11 04:50:35;;;;;;;23.97;21.67;;;;;;;20.30;68.49;100321.25;5062313;28;20489;-73
2021/07/11 04:53:04;;;;;;;25.70;22.97;;;;;;;20.10;68.63;100320.31;5075023;28;20467;-72
2021/07/11 04:55:30;;;;;;;23.10;20.87;;;;;;;20.20;68.06;100312.63;5081558;28;21068;-72
2021/07/11 04:57:57;;;;;;;23.07;20.83;;;;;;;20.34;68.18;100313.53;5065409;28;20489;-72
2021/07/11 05:00:24;;;;;;;23.17;20.80;;;;;;;20.52;67.53;100312.97;5069707;28;20894;-72
2021/07/11 05:02:50;;;;;;;22.50;20.10;;;;;;;20.61;66.76;100319.06;5081851;28;20463;-72
2021/07/11 05:05:17;;;;;;;22.30;20.17;;;;;;;20.49;67.02;100313.38;5082518;28;20532;-72
2021/07/11 05:07:43;;;;;;;21.50;19.40;;;;;;;20.75;66.22;100309.91;5076639;28;20527;-72
2021/07/11 05:10:12;;;;;;;27.90;20.83;;;;;;;21.08;65.46;100309.13;5061837;28;20521;-72
2021/07/11 05:12:39;;;;;;;21.50;18.93;;;;;;;21.21;64.47;100300.97;5067753;28;20541;-72
2021/07/11 05:15:08;;;;;;;21.03;19.13;;;;;;;21.53;63.24;100303.09;5074864;28;21024;-73
2021/07/11 05:17:35;;;;;;;21.90;19.40;;;;;;;21.91;62.18;100305.94;5067204;28;20521;-73
2021/07/11 05:20:02;;;;;;;19.40;17.47;;;;;;;22.18;61.09;100303.09;5061211;28;20433;-74
2021/07/11 05:22:29;;;;;;;23.23;17.93;;;;;;;22.19;60.18;100297.44;5041377;28;20482;-73
2021/07/11 05:24:55;;;;;;;20.17;18.20;;;;;;;22.02;60.60;100298.16;5056610;28;20596;-73
2021/07/11 05:27:23;;;;;;;18.67;16.73;;;;;;;21.99;61.06;100308.41;5080144;28;21063;-73
2021/07/11 05:29:50;;;;;;;18.80;17.00;;;;;;;22.10;60.88;100306.06;5076464;28;20520;-74
2021/07/11 05:32:17;;;;;;;19.43;16.70;;;;;;;22.15;60.54;100307.09;5061205;28;20892;-75
2021/07/11 05:34:43;;;;;;;17.97;16.30;;;;;;;22.24;60.10;100302.25;5062508;28;20516;-79
2021/07/11 05:37:10;;;;;;;18.90;16.90;;;;;;;22.36;59.82;100313.34;5063862;28;20503;-78
2021/07/11 05:39:36;;;;;;;18.27;16.50;;;;;;;22.51;59.48;100316.59;5072075;28;20446;-78
2021/07/11 05:42:04;;;;;;;18.30;16.50;;;;;;;22.34;60.22;100309.97;5078431;28;20550;-78
2021/07/11 05:44:32;;;;;;;18.20;16.47;;;;;;;22.52;59.45;100315.53;5081413;28;20500;-78
2021/07/11 05:46:58;;;;;;;16.73;15.23;;;;;;;22.56;58.81;100315.94;5081089;28;20495;-77
2021/07/11 05:49:25;;;;;;;17.27;15.60;;;;;;;22.44;59.29;100321.25;5082050;28;20476;-77
2021/07/11 05:51:51;;;;;;;18.50;15.53;;;;;;;22.55;59.34;100326.03;5061738;28;20551;-77
2021/07/11 05:54:18;;;;;;;18.63;16.63;;;;;;;22.76;58.64;100332.19;5067956;28;20529;-79
2021/07/11 05:56:45;;;;;;;17.23;15.47;;;;;;;22.96;58.05;100328.50;5068611;28;20579;-78
2021/07/11 05:59:11;;;;;;;16.47;14.47;;;;;;;23.16;57.67;100329.22;5068542;28;20477;-76
2021/07/11 06:01:39;;;;;;;15.10;13.70;;;;;;;23.56;56.89;100320.69;5062351;28;20572;-77
2021/07/11 06:04:06;;;;;;;16.40;14.90;;;;;;;23.81;56.03;100319.84;5068038;28;20436;-77
2021/07/11 06:06:32;;;;;;;17.37;15.67;;;;;;;24.02;54.34;100319.38;5080840;28;20558;-77
2021/07/11 06:08:59;;;;;;;18.10;16.17;;;;;;;23.59;55.71;100312.06;5069834;28;20504;-78
2021/07/11 06:11:26;;;;;;;16.63;15.10;;;;;;;25.45;51.03;100318.88;5061558;28;20553;-78
2021/07/11 06:13:52;;;;;;;14.93;13.57;;;;;;;27.13;46.26;100319.84;5062212;28;20907;-77
2021/07/11 06:16:19;;;;;;;14.20;12.80;;;;;;;29.67;40.35;100320.66;5045721;28;20504;-78
2021/07/11 06:18:47;;;;;;;12.80;11.60;;;;;;;31.44;37.13;100327.25;5069276;28;20508;-76
2021/07/11 06:21:14;;;;;;;12.97;11.77;;;;;;;32.59;34.85;100330.25;5063651;28;20540;-77
2021/07/11 06:23:40;;;;;;;12.77;11.33;;;;;;;33.60;32.32;100332.53;5043936;28;20827;-78
2021/07/11 06:26:07;;;;;;;13.83;12.53;;;;;;;33.10;33.01;100334.63;5043665;28;20557;-78
2021/07/11 06:28:33;;;;;;;14.10;12.70;;;;;;;30.89;36.82;100332.50;5073740;28;20485;-78
2021/07/11 06:31:00;;;;;;;11.77;10.67;;;;;;;33.19;33.42;100332.91;5066345;28;20914;-79
2021/07/11 06:33:27;;;;;;;12.43;11.20;;;;;;;35.24;30.31;100332.34;5081010;28;20444;-78
2021/07/11 06:35:55;;;;;;;12.97;11.73;;;;;;;34.39;31.10;100334.16;5070084;28;20561;-80
2021/07/11 06:38:21;;;;;;;12.20;10.60;;;;;;;34.28;31.34;100339.03;5065790;28;20460;-79
2021/07/11 06:40:48;;;;;;;11.70;10.50;;;;;;;34.14;31.51;100333.34;5077463;28;20551;-79
2021/07/11 06:43:14;;;;;;;12.23;11.13;;;;;;;33.73;31.58;100328.25;5075574;28;20461;-78
2021/07/11 06:45:42;;;;;;;13.23;12.13;;;;;;;32.41;34.18;100331.72;5064319;28;20496;-78
2021/07/11 06:48:09;;;;;;;13.50;11.67;;;;;;;32.98;33.19;100323.91;5065744;28;20457;-75
2021/07/11 06:50:36;;;;;;;13.50;11.37;;;;;;;33.91;31.68;100333.06;5060750;28;20600;-78
2021/07/11 06:53:04;;;;;;;12.03;11.03;;;;;;;32.79;33.24;100337.59;5075398;28;20533;-78
2021/07/11 06:55:31;;;;;;;11.97;11.00;;;;;;;33.53;32.68;100340.38;5064130;28;20528;-77
2021/07/11 06:57:58;;;;;;;13.10;11.90;;;;;;;33.02;32.62;100336.09;5064724;28;20533;-75
2021/07/11 07:00:24;;;;;;;11.93;10.93;;;;;;;33.36;32.40;100336.06;5047669;28;20889;-76
2021/07/11 07:02:51;;;;;;;11.83;10.70;;;;;;;32.47;32.89;100348.00;5064465;28;20477;-72
2021/07/11 07:05:17;;;;;;;11.57;10.60;;;;;;;30.93;36.24;100351.00;5063231;28;20595;-73
2021/07/11 07:07:44;;;;;;;10.90;10.00;;;;;;;31.26;36.50;100353.53;5063756;28;20518;-73
2021/07/11 07:10:14;;;;;;;11.43;10.43;;;;;;;31.38;35.52;100356.00;5063087;28;20505;-73
2021/07/11 07:12:41;;;;;;;11.00;9.93;;;;;;;32.79;32.96;100354.22;5063112;28;20466;-73
2021/07/11 07:15:09;;;;;;;11.10;10.10;;;;;;;33.56;31.35;100359.19;5057055;28;20457;-73
2021/07/11 07:17:35;;;;;;;11.27;10.17;;;;;;;34.72;30.03;100348.97;5069055;28;20473;-73
2021/07/11 07:20:05;;;;;;;11.00;9.87;;;;;;;33.98;30.70;100351.31;5064597;28;20544;-73
2021/07/11 07:22:32;;;;;;;11.00;9.80;;;;;;;33.70;31.17;100353.81;5064549;28;20453;-73
2021/07/11 07:24:59;;;;;;;13.00;11.83;;;;;;;28.87;39.79;100356.31;5074961;28;20492;-73
2021/07/11 07:27:27;;;;;;;13.33;11.93;;;;;;;29.02;40.54;100353.72;5063549;28;20568;-73
2021/07/11 07:29:53;;;;;;;12.17;10.90;;;;;;;29.15;40.16;100354.38;5064244;28;20739;-73
2021/07/11 07:32:20;;;;;;;14.80;12.77;;;;;;;28.54;40.97;100347.16;5046903;28;20505;-73
2021/07/11 07:34:46;;;;;;;14.50;13.20;;;;;;;26.39;46.45;100350.00;5058715;28;20484;-73
2021/07/11 07:37:13;;;;;;;13.13;12.07;;;;;;;28.14;43.15;100346.41;5064031;28;20488;-73
2021/07/11 07:39:39;;;;;;;13.17;11.87;;;;;;;30.65;36.94;100337.69;5063799;28;20528;-73
2021/07/11 07:42:06;;;;;;;14.77;13.37;;;;;;;29.86;37.31;100348.66;5062798;28;20524;-73
2021/07/11 07:44:34;;;;;;;13.70;12.57;;;;;;;29.67;38.21;100351.81;5063734;28;20542;-73
2021/07/11 07:47:01;;;;;;;14.30;13.17;;;;;;;31.10;36.59;100344.41;5047828;28;20529;-73
2021/07/11 07:49:28;;;;;;;12.20;11.20;;;;;;;32.68;33.88;100352.66;5034094;28;20474;-73
2021/07/11 07:51:54;;;;;;;11.77;10.73;;;;;;;33.48;32.45;100355.09;5036282;28;20494;-73
2021/07/11 07:54:21;;;;;;;11.40;10.37;;;;;;;32.33;34.39;100354.47;5043731;28;20909;-73
2021/07/11 07:56:47;;;;;;;12.53;11.43;;;;;;;32.97;33.11;100358.28;5044197;28;20506;-73
2021/07/11 07:59:14;;;;;;;14.70;13.23;;;;;;;30.10;36.76;100353.72;5043700;28;20474;-73
2021/07/11 08:01:42;;;;;;;13.80;12.60;;;;;;;29.38;39.09;100353.25;5043279;28;20506;-73
2021/07/11 08:04:09;;;;;;;13.77;12.67;;;;;;;30.25;36.80;100351.03;5043901;28;20468;-73
2021/07/11 08:06:37;;;;;;;14.10;12.90;;;;;;;29.93;37.59;100351.16;5042689;28;20537;-73
2021/07/11 08:09:05;;;;;;;11.97;10.87;;;;;;;31.29;35.67;100353.78;5037581;28;20483;-73
2021/07/11 08:11:32;;;;;;;10.57;9.77;;;;;;;32.00;34.48;100356.75;5053985;28;20485;-73
2021/07/11 08:13:58;;;;;;;13.57;12.57;;;;;;;29.63;38.40;100356.19;5063760;28;20739;-73
2021/07/11 08:16:25;;;;;;;13.50;12.20;;;;;;;29.76;38.26;100349.41;5080718;28;20483;-73
2021/07/11 08:18:53;;;;;;;11.97;10.80;;;;;;;31.69;35.55;100352.13;5070026;28;20453;-73
2021/07/11 08:21:20;;;;;;;14.20;13.03;;;;;;;29.80;38.17;100355.22;5078353;28;20514;-73
2021/07/11 08:23:46;;;;;;;12.50;11.30;;;;;;;31.85;35.42;100349.31;5072185;28;20445;-73
2021/07/11 08:26:13;;;;;;;14.97;12.80;;;;;;;32.14;34.22;100351.50;5060374;28;20520;-69
2021/07/11 08:28:40;;;;;;;12.17;11.17;;;;;;;32.53;33.99;100350.75;5061469;28;20508;-74
2021/07/11 08:31:06;;;;;;;12.30;11.30;;;;;;;32.73;33.27;100347.91;5059712;28;20515;-74
2021/07/11 08:33:33;;;;;;;14.50;13.10;;;;;;;31.27;35.83;100349.66;5061397;28;20455;-73
2021/07/11 08:36:01;;;;;;;12.83;11.83;;;;;;;32.23;34.67;100347.03;5063085;28;20485;-73
2021/07/11 08:38:28;;;;;;;13.10;11.90;;;;;;;31.71;35.47;100349.09;5063205;28;20449;-73
2021/07/11 08:40:54;;;;;;;11.23;10.10;;;;;;;31.93;36.24;100357.06;5051669;28;20485;-74
2021/07/11 08:43:22;;;;;;;13.20;12.20;;;;;;;33.53;33.80;100352.28;5072998;28;20488;-73
2021/07/11 08:45:48;;;;;;;15.10;11.33;;;;;;;33.73;33.67;100354.06;5077160;28;20554;-72
2021/07/11 08:48:15;;;;;;;12.47;11.00;;;;;;;33.40;33.83;100348.25;5061995;28;20465;-73
2021/07/11 08:50:42;;;;;;;14.60;12.47;;;;;;;30.67;38.05;100352.03;5067140;28;20559;-76
2021/07/11 08:53:13;;;;;;;13.13;11.83;;;;;;;30.07;39.63;100352.34;5062268;28;21097;-76
2021/07/11 08:55:40;;;;;;;14.77;13.47;;;;;;;30.30;39.25;100353.81;5060549;28;20472;-76
2021/07/11 08:58:06;;;;;;;13.53;12.37;;;;;;;30.54;40.07;100354.22;5062546;28;20480;-76
2021/07/11 09:00:34;;;;;;;14.93;13.60;;;;;;;30.21;40.39;100363.72;5061808;28;20476;-75
2021/07/11 09:03:01;;;;;;;13.43;12.23;;;;;;;31.86;36.17;100370.34;5061236;28;20815;-75
2021/07/11 09:05:29;;;;;;;12.60;11.50;;;;;;;32.84;33.22;100359.72;5061336;28;20485;-76
2021/07/11 09:08:04;;;;;;;12.90;11.73;;;;;;;34.05;32.30;100352.59;5063171;28;20477;-76
2021/07/11 09:10:34;;;;;;;11.07;10.17;;;;;;;33.83;32.54;100355.06;5063029;28;20479;-78
2021/07/11 09:13:02;;;;;;;12.67;11.50;;;;;;;33.77;31.50;100349.56;5063927;28;20453;-78
2021/07/11 09:15:33;;;;;;;13.27;12.00;;;;;;;31.42;35.28;100360.72;5061833;28;20468;-74
2021/07/11 09:18:00;;;;;;;11.87;10.67;;;;;;;31.85;35.80;100358.44;5062543;28;20911;-74
2021/07/11 09:20:26;;;;;;;11.90;10.90;;;;;;;32.38;36.04;100357.22;5061471;28;20551;-74
2021/07/11 09:22:58;;;;;;;10.37;9.50;;;;;;;33.08;33.34;100354.28;5061633;28;20469;-75
2021/07/11 09:25:24;;;;;;;12.33;11.33;;;;;;;31.98;34.97;100356.19;5060398;28;20473;-74
2021/07/11 09:27:52;;;;;;;12.10;11.10;;;;;;;32.67;34.22;100353.75;5061666;28;20477;-75
2021/07/11 09:30:19;;;;;;;11.30;10.40;;;;;;;33.59;32.49;100347.50;5060894;28;20568;-72
2021/07/11 09:32:50;;;;;;;12.90;11.77;;;;;;;33.73;31.65;100337.44;5061640;28;20441;-75
2021/07/11 09:35:18;;;;;;;9.87;9.07;;;;;;;34.77;32.09;100342.53;5060443;28;20469;-74
2021/07/11 09:37:47;;;;;;;10.43;9.53;;;;;;;35.42;29.67;100342.59;5053172;28;20470;-74
2021/07/11 09:40:16;;;;;;;11.10;10.10;;;;;;;34.58;31.79;100345.28;5041448;28;20443;-75
2021/07/11 09:42:44;;;;;;;11.10;10.10;;;;;;;34.48;31.25;100340.72;5063211;28;20894;-73
2021/07/11 09:45:17;;;;;;;10.83;9.90;;;;;;;34.55;31.54;100346.72;5060688;28;20451;-76
2021/07/11 09:47:45;;;;;;;10.93;10.13;;;;;;;34.26;31.67;100347.63;5071394;28;20448;-74
2021/07/11 09:50:14;;;;;;;10.60;9.60;;;;;;;33.37;33.35;100343.28;5073674;28;20762;-73
2021/07/11 09:52:42;;;;;;;12.17;10.20;;;;;;;33.16;32.76;100344.59;5061463;28;20513;-73
2021/07/11 09:55:12;;;;;;;10.90;10.00;;;;;;;32.08;34.72;100342.38;5061001;28;20457;-74
2021/07/11 09:57:40;;;;;;;10.03;9.23;;;;;;;31.74;36.27;100344.94;5061534;28;20516;-75
2021/07/11 10:00:21;;;;;;;10.40;9.40;;;;;;;32.01;35.98;100341.81;5060958;28;20460;-74
2021/07/11 10:02:49;;;;;;;11.23;10.23;;;;;;;31.18;37.27;100338.34;5070183;28;20454;-75
2021/07/11 10:05:17;;;;;;;11.90;10.90;;;;;;;30.78;38.11;100334.41;5080805;28;20452;-75
2021/07/11 10:07:44;;;;;;;12.70;11.00;;;;;;;29.74;39.87;100343.31;5075467;28;20519;-74
2021/07/11 10:10:12;;;;;;;12.27;11.17;;;;;;;28.65;42.71;100339.88;5060477;28;20591;-75
2021/07/11 10:12:40;;;;;;;13.40;12.20;;;;;;;30.01;39.95;100347.88;5077904;28;20495;-74
2021/07/11 10:15:11;;;;;;;10.57;9.77;;;;;;;32.53;36.28;100339.69;5083786;28;20745;-74
2021/07/11 10:17:43;;;;;;;11.40;10.50;;;;;;;34.02;32.88;100341.25;5078984;28;20456;-75
2021/07/11 10:20:10;;;;;;;11.70;10.70;;;;;;;32.33;34.46;100344.22;5063439;28;20696;-75
2021/07/11 10:22:43;;;;;;;10.93;9.93;;;;;;;32.86;34.18;100346.41;5064881;28;20454;-76
2021/07/11 10:25:13;;;;;;;11.37;10.47;;;;;;;33.03;33.28;100338.53;5062976;28;20615;-76
2021/07/11 10:27:40;;;;;;;10.90;10.00;;;;;;;32.35;34.70;100341.97;5063622;28;20481;-74
2021/07/11 10:30:07;;;;;;;10.73;9.83;;;;;;;32.26;33.82;100332.63;5063744;28;20548;-74
2021/07/11 10:32:34;;;;;;;11.23;10.20;;;;;;;31.71;34.73;100344.38;5077014;28;20487;-74
2021/07/11 10:35:17;;;;;;;13.10;11.87;;;;;;;30.21;38.08;100344.41;5076403;28;20513;-74
2021/07/11 10:37:47;;;;;;;13.10;11.90;;;;;;;29.76;38.89;100341.13;5076344;28;20957;-74
2021/07/11 10:40:16;;;;;;;11.43;10.50;;;;;;;30.87;36.95;100337.47;5081282;28;20548;-74
2021/07/11 10:42:42;;;;;;;12.07;10.97;;;;;;;30.96;39.32;100339.41;5069166;28;20458;-74
2021/07/11 10:45:11;;;;;;;12.67;11.60;;;;;;;31.42;36.08;100344.13;5063398;28;20489;-73
2021/07/11 10:47:38;;;;;;;15.53;14.03;;;;;;;30.86;36.39;100341.31;5063896;28;20512;-74
2021/07/11 10:50:20;;;;;;;13.93;12.63;;;;;;;30.05;38.25;100338.00;5071946;28;20480;-74
2021/07/11 10:52:48;;;;;;;12.30;11.20;;;;;;;30.57;37.22;100350.91;5069982;28;20480;-74
2021/07/11 10:55:15;;;;;;;10.93;9.93;;;;;;;30.69;39.74;100344.31;5069859;28;21011;-76
2021/07/11 10:57:42;;;;;;;13.77;12.47;;;;;;;29.25;42.56;100352.59;5064222;28;20552;-76
2021/07/11 11:00:11;;;;;;;13.00;11.80;;;;;;;29.12;42.22;100344.72;5066158;28;20645;-73
2021/07/11 11:02:38;;;;;;;11.50;10.50;;;;;;;29.28;43.99;100341.03;5063261;28;20923;-73
2021/07/11 11:05:10;;;;;;;12.37;11.30;;;;;;;29.22;42.19;100335.78;5061250;28;20933;-80
2021/07/11 11:07:42;;;;;;;12.07;10.97;;;;;;;29.65;40.80;100348.50;5073758;28;20532;-82
2021/07/11 11:10:30;;;;;;;11.60;10.60;;;;;;;29.53;40.79;100349.75;5057557;28;20524;-75
2021/07/11 11:13:10;;;;;;;11.20;10.20;;;;;;;29.82;41.30;100355.78;5061173;28;20487;-74